VIP Ground Handling & Aviation Services

 

 
Airport

LEMNOS (LXS)

Ground Handling Services – LXS/LGLM

VIP Ground Handling

State Ground Handling

Military Ground Handling

Slot & PPR Coordination

Fuel Arrangements

Crew Accommodation Arrangements

Crew Transportation

Customs & Immigration Assistance

Executive Terminal Services

Crew Lounge

Flight Planning, Weather Briefing and NOTAMs

Catering Arrangements

Security Services

Aircraft Maintenance

Airport Customs & Immigration

Concierge Services

VIP Meet & Greet

Helicopter Transfers

Chauffeur Services

Aircraft Charter

Yacht Charter

Hire & Rental

Entertainment & Hospitality

Health & Beauty

Delivery Services

Conference & Meeting rooms

Lemnos Airport, Lemnos, 814 01

+30 210 35 33 331 (24/7)

+30 694 6200 300 (24/7)

greece@alphajetservices.com

Lemnos Airport
Airport Type
•Civil
Operating Hours
•Check NOTAMS / Contact us
Fuel Available
•JET A1
Fire Category
•6
Approaches
•VOR / DME NDB
Available data for LGLM from the past 2 hours
LIMNOS ISLAND AR
Metar
LGLM 260950Z 04024G34KT CAVOK 29/20 Q1014

09:50 UTC

Wind: 40° 24kt

Visibility:

Sky:

Temp: 29 deg C / 84.2 deg F

Dewpoint: 20 deg C / 68 deg F

Pressure: 1014 hPa

TAF
TAF LGLM 260800Z 2609/2618 05015G25KT CAVOK